Time;durP1;ratioP1;P1;durP2;ratioP2;P2;SDS_P1;SDS_P2;PMS_P1;PMS_P2;Temp;Humidity;BMP_temperature;BMP_pressure;BME280_temperature;BME280_humidity;BME280_pressure;Samples;Min_cycle;Max_cycle;Signal;HPM_P1;HPM_P2
2022/09/13 00:00:15;;;;;;;;;;;;;;;25.43;41.23;100502.33;104590;1308;61260;-82
2022/09/13 00:02:41;;;;;;;;;;;;;;;25.43;41.21;100498.55;104537;1307;61839;-82
2022/09/13 00:05:06;;;;;;;;;;;;;;;25.42;41.24;100495.16;104470;1309;61317;-83
2022/09/13 00:07:32;;;;;;;;;;;;;;;25.42;41.09;100493.58;104527;1309;61391;-83
2022/09/13 00:09:57;;;;;;;;;;;;;;;25.42;41.25;100490.86;104520;1309;61422;-86
2022/09/13 00:12:23;;;;;;;;;;;;;;;25.42;41.09;100492.64;104486;1309;62541;-83
2022/09/13 00:14:49;;;;;;;;;;;;;;;25.42;41.22;100494.13;104471;1308;72645;-83
2022/09/13 00:17:14;;;;;;;;;;;;;;;25.41;41.14;100497.04;104469;1309;61437;-83
2022/09/13 00:19:40;;;;;;;;;;;;;;;25.42;41.25;100493.96;104492;1308;61275;-83
2022/09/13 00:22:05;;;;;;;;;;;;;;;25.42;41.23;100491.98;104492;1308;61292;-83
2022/09/13 00:24:32;;;;;;;;;;;;;;;25.42;41.19;100491.59;104468;1309;61301;-84
2022/09/13 00:26:59;;;;;;;;;;;;;;;25.41;41.19;100493.08;104463;1308;72849;-85
2022/09/13 00:29:25;;;;;;;;;;;;;;;25.41;41.29;100492.76;104394;1311;61281;-85
2022/09/13 00:31:51;;;;;;;;;;;;;;;25.41;41.27;100492.17;104469;1309;61288;-85
2022/09/13 00:34:18;;;;;;;;;;;;;;;25.41;41.30;100490.80;104520;1308;61361;-82
2022/09/13 00:36:43;;;;;;;;;;;;;;;25.41;41.31;100490.64;104457;1308;61307;-82
2022/09/13 00:39:09;;;;;;;;;;;;;;;25.41;41.20;100493.81;104467;1308;61400;-82
2022/09/13 00:41:35;;;;;;;;;;;;;;;25.41;41.26;100485.40;104479;1308;61025;-83
2022/09/13 00:44:01;;;;;;;;;;;;;;;25.41;41.17;100487.55;104485;1308;61270;-83
2022/09/13 00:46:36;;;;;;;;;;;;;;;25.41;41.13;100489.52;104521;1309;61339;-83
2022/09/13 00:49:04;;;;;;;;;;;;;;;25.40;41.22;100490.30;104580;1308;74774;-81
2022/09/13 00:51:29;;;;;;;;;;;;;;;25.40;41.21;100492.65;104650;1309;61147;-83
2022/09/13 00:53:55;;;;;;;;;;;;;;;25.40;41.22;100492.69;104618;1308;61384;-83
2022/09/13 00:56:22;;;;;;;;;;;;;;;25.41;41.27;100496.41;104499;1308;61251;-83
2022/09/13 00:58:57;;;;;;;;;;;;;;;25.41;41.24;100495.84;104480;1308;61140;-80
2022/09/13 01:01:22;;;;;;;;;;;;;;;25.41;41.14;100499.44;104379;1311;61285;-82
2022/09/13 01:03:48;;;;;;;;;;;;;;;25.40;41.17;100498.02;104457;1309;61397;-84
2022/09/13 01:06:17;;;;;;;;;;;;;;;25.40;41.22;100500.77;104379;1311;61474;-84
2022/09/13 01:08:44;;;;;;;;;;;;;;;25.40;41.25;100498.94;104488;1309;75863;-86
2022/09/13 01:11:11;;;;;;;;;;;;;;;25.40;41.22;100496.30;104470;1309;61291;-84
2022/09/13 01:13:36;;;;;;;;;;;;;;;25.40;41.34;100496.84;104477;1308;61473;-84
2022/09/13 01:16:02;;;;;;;;;;;;;;;25.40;41.24;100496.14;104516;1308;61295;-83
2022/09/13 01:18:27;;;;;;;;;;;;;;;25.40;41.18;100496.49;104491;1308;61355;-84
2022/09/13 01:20:59;;;;;;;;;;;;;;;25.39;41.15;100495.08;104468;1308;61247;-84
2022/09/13 01:23:33;;;;;;;;;;;;;;;25.39;41.35;100495.62;104500;1308;61174;-85
2022/09/13 01:25:59;;;;;;;;;;;;;;;25.39;41.13;100493.83;104382;1311;72899;-83
2022/09/13 01:28:28;;;;;;;;;;;;;;;25.39;41.13;100493.48;104458;1308;61334;-84
2022/09/13 01:30:53;;;;;;;;;;;;;;;25.39;41.16;100496.95;104501;1310;61736;-84
2022/09/13 01:33:27;;;;;;;;;;;;;;;25.38;41.18;100497.69;104514;1311;61405;-84
2022/09/13 01:35:55;;;;;;;;;;;;;;;25.38;41.20;100500.25;104437;1308;72874;-84
2022/09/13 01:38:21;;;;;;;;;;;;;;;25.37;41.22;100501.39;104465;1310;76019;-83
2022/09/13 01:40:53;;;;;;;;;;;;;;;25.38;41.24;100503.70;104550;1308;61960;-84
2022/09/13 01:43:19;;;;;;;;;;;;;;;25.38;41.20;100503.86;104521;1308;61133;-83
2022/09/13 01:46:03;;;;;;;;;;;;;;;25.38;41.24;100503.36;104522;1308;61294;-83
2022/09/13 01:48:32;;;;;;;;;;;;;;;25.38;41.03;100502.83;104387;1310;75866;-84
2022/09/13 01:51:24;;;;;;;;;;;;;;;25.37;41.15;100500.91;104495;1308;61638;-83
2022/09/13 01:53:55;;;;;;;;;;;;;;;25.37;41.25;100502.17;104469;1308;61495;-83
2022/09/13 01:56:40;;;;;;;;;;;;;;;25.37;41.30;100500.51;104375;1310;73878;-83
2022/09/13 01:59:11;;;;;;;;;;;;;;;25.36;41.34;100500.94;104388;1311;75758;-83
2022/09/13 02:01:41;;;;;;;;;;;;;;;25.36;41.29;100496.83;104488;1310;61193;-83
2022/09/13 02:04:08;;;;;;;;;;;;;;;25.37;41.14;100496.05;104563;1308;61641;-84
2022/09/13 02:06:35;;;;;;;;;;;;;;;25.36;41.19;100495.02;104555;1308;73540;-85
2022/09/13 02:09:24;;;;;;;;;;;;;;;25.37;41.24;100493.55;104541;1308;75930;-85
2022/09/13 02:11:51;;;;;;;;;;;;;;;25.36;41.08;100494.33;104469;1308;61180;-87
2022/09/13 02:14:18;;;;;;;;;;;;;;;25.36;41.14;100494.69;104566;1308;61131;-84
2022/09/13 02:16:53;;;;;;;;;;;;;;;25.36;41.10;100493.27;104541;1308;73983;-84
2022/09/13 02:19:24;;;;;;;;;;;;;;;25.36;41.12;100490.56;104532;1308;75832;-84
2022/09/13 02:21:51;;;;;;;;;;;;;;;25.36;41.24;100486.59;104547;1308;60512;-82
2022/09/13 02:24:17;;;;;;;;;;;;;;;25.36;41.14;100485.35;104429;1310;61551;-84
2022/09/13 02:26:44;;;;;;;;;;;;;;;25.35;41.15;100478.90;104518;1308;61155;-83
2022/09/13 02:29:10;;;;;;;;;;;;;;;25.36;41.06;100483.18;104540;1308;75769;-82
2022/09/13 02:31:46;;;;;;;;;;;;;;;25.35;41.24;100478.02;104397;1311;59283;-83
2022/09/13 02:34:20;;;;;;;;;;;;;;;25.35;41.13;100478.19;104519;1308;61005;-84
2022/09/13 02:36:45;;;;;;;;;;;;;;;25.35;41.31;100473.19;104455;1307;73301;-83
2022/09/13 02:39:15;;;;;;;;;;;;;;;25.35;41.17;100471.73;104472;1308;61788;-83
2022/09/13 02:42:03;;;;;;;;;;;;;;;25.34;41.08;100471.59;104555;1308;61323;-83
2022/09/13 02:44:33;;;;;;;;;;;;;;;25.35;41.10;100469.39;104538;1308;61748;-83
2022/09/13 02:46:59;;;;;;;;;;;;;;;25.34;41.14;100471.79;104519;1308;72609;-83
2022/09/13 02:49:30;;;;;;;;;;;;;;;25.35;41.16;100476.80;104550;1308;61330;-82
2022/09/13 02:51:56;;;;;;;;;;;;;;;25.34;41.14;100475.06;104537;1308;61280;-82
2022/09/13 02:54:24;;;;;;;;;;;;;;;25.34;41.27;100477.59;104481;1310;61295;-83
2022/09/13 02:56:55;;;;;;;;;;;;;;;25.34;41.11;100479.38;104430;1311;72893;-83
2022/09/13 02:59:21;;;;;;;;;;;;;;;25.34;41.24;100480.96;104411;1310;75811;-83
2022/09/13 03:01:48;;;;;;;;;;;;;;;25.33;41.17;100479.60;104438;1310;61337;-83
2022/09/13 03:04:13;;;;;;;;;;;;;;;25.34;41.09;100480.14;104541;1308;61282;-83
2022/09/13 03:06:41;;;;;;;;;;;;;;;25.33;41.26;100479.42;104486;1308;61301;-84
2022/09/13 03:09:06;;;;;;;;;;;;;;;25.33;41.21;100476.75;104472;1309;75728;-83
2022/09/13 03:11:32;;;;;;;;;;;;;;;25.33;41.18;100471.74;104490;1308;61318;-84
2022/09/13 03:13:57;;;;;;;;;;;;;;;25.33;41.20;100471.88;104522;1309;61336;-83
2022/09/13 03:16:29;;;;;;;;;;;;;;;25.33;41.14;100474.07;104521;1307;61289;-82
2022/09/13 03:18:59;;;;;;;;;;;;;;;25.32;41.23;100477.00;104478;1309;75814;-84
2022/09/13 03:21:47;;;;;;;;;;;;;;;25.32;41.20;100477.90;104567;1308;61419;-83
2022/09/13 03:24:16;;;;;;;;;;;;;;;25.32;41.24;100478.81;104115;1316;61299;-84
2022/09/13 03:26:50;;;;;;;;;;;;;;;25.32;41.26;100479.89;103891;1317;73466;-82
2022/09/13 03:29:34;;;;;;;;;;;;;;;25.32;41.39;100482.94;104235;1316;74813;-83
2022/09/13 03:32:25;;;;;;;;;;;;;;;25.32;41.10;100484.94;104167;1316;61327;-82
2022/09/13 03:34:53;;;;;;;;;;;;;;;25.32;41.34;100485.84;103197;1323;61213;-83
2022/09/13 03:37:24;;;;;;;;;;;;;;;25.32;41.28;100486.35;102847;1323;71645;-83
2022/09/13 03:39:56;;;;;;;;;;;;;;;25.32;41.27;100482.95;103221;1322;75863;-83
2022/09/13 03:42:30;;;;;;;;;;;;;;;25.32;41.17;100482.20;103200;1322;61425;-83
2022/09/13 03:44:56;;;;;;;;;;;;;;;25.32;41.14;100480.06;103087;1322;61315;-83
2022/09/13 03:47:21;;;;;;;;;;;;;;;25.32;41.13;100478.83;103220;1321;61323;-84
2022/09/13 03:49:50;;;;;;;;;;;;;;;25.31;41.02;100476.55;103041;1323;61236;-85
2022/09/13 03:52:15;;;;;;;;;;;;;;;25.31;41.22;100474.21;103002;1323;61090;-82
2022/09/13 03:54:40;;;;;;;;;;;;;;;25.31;41.30;100473.16;103246;1322;61410;-86
2022/09/13 03:57:09;;;;;;;;;;;;;;;25.31;41.28;100471.84;103252;1322;61420;-83
2022/09/13 03:59:37;;;;;;;;;;;;;;;25.31;41.13;100472.25;103083;1322;61329;-83
2022/09/13 04:02:04;;;;;;;;;;;;;;;25.31;41.26;100475.90;103678;1317;61029;-83
2022/09/13 04:04:29;;;;;;;;;;;;;;;25.30;41.15;100483.11;104113;1316;61301;-86
2022/09/13 04:06:56;;;;;;;;;;;;;;;25.30;41.16;100479.73;104112;1316;61536;-84
2022/09/13 04:09:22;;;;;;;;;;;;;;;25.30;41.11;100478.48;104037;1317;61789;-84
2022/09/13 04:11:47;;;;;;;;;;;;;;;25.29;40.98;100473.90;104203;1311;62346;-85
2022/09/13 04:14:14;;;;;;;;;;;;;;;25.25;40.91;100468.83;104473;1308;61303;-83
2022/09/13 04:16:40;;;;;;;;;;;;;;;25.23;40.88;100466.35;104464;1308;61163;-84
2022/09/13 04:19:06;;;;;;;;;;;;;;;25.21;40.88;100466.88;104494;1309;61333;-88
2022/09/13 04:21:31;;;;;;;;;;;;;;;25.19;40.78;100469.23;104511;1309;61353;-83
2022/09/13 04:23:57;;;;;;;;;;;;;;;25.16;40.70;100471.52;104306;1309;61395;-84
2022/09/13 04:26:22;;;;;;;;;;;;;;;25.14;40.75;100473.85;104274;1309;60329;-84
2022/09/13 04:28:48;;;;;;;;;;;;;;;25.12;40.57;100476.41;104589;1309;61708;-84
2022/09/13 04:31:13;;;;;;;;;;;;;;;25.09;40.49;100478.91;104502;1309;61182;-85
2022/09/13 04:33:40;;;;;;;;;;;;;;;25.07;40.25;100480.21;104434;1309;61413;-84
2022/09/13 04:36:05;;;;;;;;;;;;;;;25.04;40.39;100477.33;104316;1309;61514;-83
2022/09/13 04:38:31;;;;;;;;;;;;;;;25.01;40.11;100476.70;104261;1309;61289;-84
2022/09/13 04:40:56;;;;;;;;;;;;;;;24.99;39.95;100477.77;104084;1310;59665;-84
2022/09/13 04:43:22;;;;;;;;;;;;;;;24.96;40.00;100476.94;104309;1308;61294;-84
2022/09/13 04:45:47;;;;;;;;;;;;;;;24.95;39.87;100478.49;103999;1309;59341;-82
2022/09/13 04:48:14;;;;;;;;;;;;;;;24.91;39.72;100479.40;103933;1309;61318;-83
2022/09/13 04:50:39;;;;;;;;;;;;;;;24.88;39.76;100481.12;103808;1307;61379;-84
2022/09/13 04:53:05;;;;;;;;;;;;;;;24.86;39.66;100487.56;103564;1308;61306;-83
2022/09/13 04:55:30;;;;;;;;;;;;;;;24.84;39.57;100491.96;103500;1308;61312;-83
2022/09/13 04:57:56;;;;;;;;;;;;;;;24.80;39.63;100490.84;103583;1307;61425;-84
2022/09/13 05:00:22;;;;;;;;;;;;;;;24.80;39.74;100492.83;103620;1309;61309;-83
2022/09/13 05:02:47;;;;;;;;;;;;;;;24.80;39.90;100489.59;103775;1306;61217;-83
2022/09/13 05:05:13;;;;;;;;;;;;;;;24.80;39.93;100490.49;103683;1307;61301;-85
2022/09/13 05:07:39;;;;;;;;;;;;;;;24.81;39.87;100494.75;103650;1308;60559;-83
2022/09/13 05:10:05;;;;;;;;;;;;;;;24.80;39.84;100492.96;103719;1307;61901;-83
2022/09/13 05:12:30;;;;;;;;;;;;;;;24.79;39.96;100492.59;103514;1308;61287;-83
2022/09/13 05:14:56;;;;;;;;;;;;;;;24.82;39.88;100497.70;103631;1308;61328;-83
2022/09/13 05:17:21;;;;;;;;;;;;;;;24.84;40.03;100499.45;103552;1308;72647;-84
2022/09/13 05:19:48;;;;;;;;;;;;;;;24.86;39.86;100505.93;103757;1309;61478;-84
2022/09/13 05:22:13;;;;;;;;;;;;;;;24.88;39.84;100504.52;103991;1308;61361;-85
2022/09/13 05:24:39;;;;;;;;;;;;;;;24.89;39.80;100503.85;103907;1308;61419;-83
2022/09/13 05:27:04;;;;;;;;;;;;;;;24.90;39.89;100504.85;103696;1308;61400;-83
2022/09/13 05:29:30;;;;;;;;;;;;;;;24.91;39.87;100505.64;103847;1307;61439;-82
2022/09/13 05:31:56;;;;;;;;;;;;;;;24.92;39.79;100504.85;103829;1308;76092;-83
2022/09/13 05:34:23;;;;;;;;;;;;;;;24.92;39.72;100502.46;103870;1308;61395;-83
2022/09/13 05:36:49;;;;;;;;;;;;;;;24.92;39.74;100501.91;103992;1307;61297;-83
2022/09/13 05:39:16;;;;;;;;;;;;;;;24.93;39.82;100503.48;103942;1307;61386;-83
2022/09/13 05:41:42;;;;;;;;;;;;;;;24.94;39.95;100500.71;103813;1309;74778;-82
2022/09/13 05:44:08;;;;;;;;;;;;;;;24.94;39.74;100500.35;103996;1308;61373;-83
2022/09/13 05:46:33;;;;;;;;;;;;;;;24.95;39.86;100495.24;103808;1308;61382;-82
2022/09/13 05:48:59;;;;;;;;;;;;;;;24.96;39.81;100497.88;103908;1308;61265;-83
2022/09/13 05:51:24;;;;;;;;;;;;;;;24.96;39.86;100495.50;103530;1309;61327;-81
2022/09/13 05:53:50;;;;;;;;;;;;;;;24.96;39.92;100498.42;103298;1309;75846;-82
2022/09/13 05:56:17;;;;;;;;;;;;;;;24.94;39.89;100502.72;103362;1308;62976;-85
2022/09/13 05:58:43;;;;;;;;;;;;;;;24.92;39.80;100504.81;105133;1308;59878;-82
2022/09/13 06:01:09;;;;;;;;;;;;;;;24.90;39.79;100505.23;105093;1309;59625;-82
2022/09/13 06:03:35;;;;;;;;;;;;;;;24.86;39.77;100508.23;104713;1311;59364;-83
2022/09/13 06:06:00;;;;;;;;;;;;;;;24.83;39.68;100508.96;103604;1308;61506;-83
2022/09/13 06:08:29;;;;;;;;;;;;;;;24.80;39.82;100506.69;103868;1307;62988;-85
2022/09/13 06:10:56;;;;;;;;;;;;;;;24.77;39.67;100511.23;103604;1308;62733;-83
2022/09/13 06:13:21;;;;;;;;;;;;;;;24.79;39.72;100513.83;105241;1309;60231;-83
2022/09/13 06:15:47;;;;;;;;;;;;;;;24.80;39.78;100514.02;105076;1309;59663;-82
2022/09/13 06:18:13;;;;;;;;;;;;;;;24.82;39.71;100514.26;105214;1309;59801;-82
2022/09/13 06:20:38;;;;;;;;;;;;;;;24.86;39.69;100519.40;104015;1308;61303;-83
2022/09/13 06:23:04;;;;;;;;;;;;;;;24.89;39.65;100517.74;103814;1308;61493;-82
2022/09/13 06:25:29;;;;;;;;;;;;;;;24.91;39.66;100520.77;103749;1309;74740;-82
2022/09/13 06:27:55;;;;;;;;;;;;;;;24.92;39.58;100521.61;103754;1308;61406;-82
2022/09/13 06:30:21;;;;;;;;;;;;;;;24.92;39.68;100520.10;103827;1308;61371;-83
2022/09/13 06:32:47;;;;;;;;;;;;;;;24.92;39.60;100520.47;103693;1309;61356;-83
2022/09/13 06:35:12;;;;;;;;;;;;;;;24.92;39.57;100521.60;103817;1307;61715;-83
2022/09/13 06:37:38;;;;;;;;;;;;;;;24.92;39.46;100527.88;103682;1308;61291;-83
2022/09/13 06:40:04;;;;;;;;;;;;;;;24.93;39.51;100527.81;103700;1309;61290;-84
2022/09/13 06:42:32;;;;;;;;;;;;;;;24.94;39.38;100527.54;104049;1309;61308;-84
2022/09/13 06:44:58;;;;;;;;;;;;;;;24.94;39.47;100532.55;103832;1308;71747;-84
2022/09/13 06:47:24;;;;;;;;;;;;;;;24.94;39.44;100532.39;103726;1309;61342;-83
2022/09/13 06:49:50;;;;;;;;;;;;;;;24.94;39.33;100534.56;103994;1309;62715;-83
2022/09/13 06:52:15;;;;;;;;;;;;;;;24.94;39.35;100537.10;103450;1307;61463;-83
2022/09/13 06:54:41;;;;;;;;;;;;;;;24.93;39.34;100534.30;103246;1309;61305;-83
2022/09/13 06:57:06;;;;;;;;;;;;;;;24.90;39.39;100534.85;103511;1308;61319;-83
2022/09/13 06:59:33;;;;;;;;;;;;;;;24.88;39.43;100535.83;103487;1308;59464;-82
2022/09/13 07:01:59;;;;;;;;;;;;;;;24.77;39.26;100536.61;103363;1309;61451;-82
2022/09/13 07:04:25;;;;;;;;;;;;;;;24.66;39.40;100537.70;103322;1308;61365;-82
2022/09/13 07:06:50;;;;;;;;;;;;;;;24.60;39.46;100542.98;103570;1309;61646;-83
2022/09/13 07:09:22;;;;;;;;;;;;;;;24.56;39.40;100543.90;103394;1308;61465;-82
2022/09/13 07:11:49;;;;;;;;;;;;;;;24.45;39.46;100546.29;103369;1309;60423;-83
2022/09/13 07:14:15;;;;;;;;;;;;;;;24.27;39.28;100545.23;105048;1308;60365;-82
2022/09/13 07:16:40;;;;;;;;;;;;;;;24.14;39.47;100542.41;105172;1309;59468;-81
2022/09/13 07:19:07;;;;;;;;;;;;;;;24.17;39.75;100544.10;105203;1308;59519;-83
2022/09/13 07:21:33;;;;;;;;;;;;;;;24.23;39.92;100543.39;105211;1308;59744;-82
2022/09/13 07:23:58;;;;;;;;;;;;;;;24.28;39.88;100545.90;105247;1308;59583;-83
2022/09/13 07:26:26;;;;;;;;;;;;;;;24.30;39.78;100542.23;104958;1309;59391;-82
2022/09/13 07:28:52;;;;;;;;;;;;;;;24.34;39.74;100535.09;104811;1308;59692;-83
2022/09/13 07:31:19;;;;;;;;;;;;;;;24.38;39.67;100535.10;104915;1308;60077;-83
2022/09/13 07:33:45;;;;;;;;;;;;;;;24.38;39.81;100532.35;104918;1307;59413;-84
2022/09/13 07:36:11;;;;;;;;;;;;;;;24.40;39.66;100531.84;105081;1306;59270;-85
2022/09/13 07:38:37;;;;;;;;;;;;;;;24.38;39.59;100530.00;105253;1309;60260;-84
2022/09/13 07:41:05;;;;;;;;;;;;;;;24.41;39.57;100525.07;105201;1309;59172;-84
2022/09/13 07:43:31;;;;;;;;;;;;;;;24.47;39.61;100531.79;104811;1306;58887;-83
2022/09/13 07:45:57;;;;;;;;;;;;;;;24.54;39.58;100528.48;103798;1309;61403;-83
2022/09/13 07:48:24;;;;;;;;;;;;;;;24.58;39.54;100527.20;103875;1307;61195;-84
2022/09/13 07:51:03;;;;;;;;;;;;;;;24.60;39.42;100520.48;104384;1309;61385;-83
2022/09/13 07:53:29;;;;;;;;;;;;;;;24.63;39.34;100522.25;103923;1309;61298;-83
2022/09/13 07:56:04;;;;;;;;;;;;;;;24.66;39.33;100520.88;104463;1311;61329;-83
2022/09/13 07:58:30;;;;;;;;;;;;;;;24.69;39.31;100523.71;103791;1308;73766;-83
2022/09/13 08:01:21;;;;;;;;;;;;;;;24.69;39.16;100522.11;103640;1309;61336;-84
2022/09/13 08:03:54;;;;;;;;;;;;;;;24.69;39.21;100520.32;103469;1308;63027;-82
2022/09/13 08:06:20;;;;;;;;;;;;;;;24.68;39.14;100520.91;104944;1309;73867;-84
2022/09/13 08:08:45;;;;;;;;;;;;;;;24.69;39.22;100516.52;105001;1308;59270;-83
2022/09/13 08:11:14;;;;;;;;;;;;;;;24.71;39.37;100516.50;105037;1310;59750;-84
2022/09/13 08:13:39;;;;;;;;;;;;;;;24.70;39.29;100519.12;104886;1311;59348;-84
2022/09/13 08:16:05;;;;;;;;;;;;;;;24.65;39.22;100518.81;105198;1308;59531;-85
2022/09/13 08:18:30;;;;;;;;;;;;;;;24.64;39.30;100514.66;105031;1311;59869;-85
2022/09/13 08:20:57;;;;;;;;;;;;;;;24.65;39.20;100510.91;105223;1309;59502;-85
2022/09/13 08:23:23;;;;;;;;;;;;;;;24.67;39.33;100512.42;105119;1311;59459;-84
2022/09/13 08:25:48;;;;;;;;;;;;;;;24.68;39.17;100509.52;105100;1310;59225;-84
2022/09/13 08:28:15;;;;;;;;;;;;;;;24.70;39.13;100508.81;105254;1309;59383;-84
2022/09/13 08:30:42;;;;;;;;;;;;;;;24.72;39.15;100509.76;105146;1309;75972;-84
2022/09/13 08:33:07;;;;;;;;;;;;;;;24.72;39.18;100502.73;104888;1309;59188;-85
2022/09/13 08:35:33;;;;;;;;;;;;;;;24.73;39.11;100501.38;103566;1311;61281;-84
2022/09/13 08:38:00;;;;;;;;;;;;;;;24.72;39.12;100502.17;103560;1309;61309;-83
2022/09/13 08:40:27;;;;;;;;;;;;;;;24.71;39.00;100502.64;103646;1310;61300;-83
2022/09/13 08:42:52;;;;;;;;;;;;;;;24.69;39.07;100496.88;103765;1310;61168;-83
2022/09/13 08:45:18;;;;;;;;;;;;;;;24.67;39.01;100493.67;103745;1309;61388;-83
2022/09/13 08:48:05;;;;;;;;;;;;;;;24.67;39.12;100489.86;103800;1309;61617;-83
2022/09/13 08:50:35;;;;;;;;;;;;;;;24.70;38.96;100491.02;103537;1311;74834;-83
2022/09/13 08:53:01;;;;;;;;;;;;;;;24.73;38.93;100491.11;103586;1309;61369;-84
2022/09/13 08:55:30;;;;;;;;;;;;;;;24.74;38.90;100483.63;103532;1310;61396;-83
2022/09/13 08:58:01;;;;;;;;;;;;;;;24.75;38.80;100485.86;103491;1309;72753;-83
2022/09/13 09:00:31;;;;;;;;;;;;;;;24.74;38.80;100479.71;103316;1311;74935;-82
2022/09/13 09:03:05;;;;;;;;;;;;;;;24.72;38.81;100475.91;103245;1311;61086;-82
2022/09/13 09:05:32;;;;;;;;;;;;;;;24.68;38.79;100467.25;103286;1309;63153;-83
2022/09/13 09:08:11;;;;;;;;;;;;;;;24.71;38.67;100468.09;103298;1311;72889;-83
2022/09/13 09:10:57;;;;;;;;;;;;;;;24.72;38.68;100471.95;103341;1309;74105;-83
2022/09/13 09:13:27;;;;;;;;;;;;;;;24.70;38.37;100473.44;103614;1309;61225;-83
2022/09/13 09:16:19;;;;;;;;;;;;;;;24.69;38.32;100470.40;103533;1309;61355;-83
2022/09/13 09:18:44;;;;;;;;;;;;;;;24.68;38.13;100474.81;103807;1311;72948;-83
2022/09/13 09:21:12;;;;;;;;;;;;;;;24.68;37.96;100466.06;103763;1309;61951;-84
2022/09/13 09:23:42;;;;;;;;;;;;;;;24.69;37.77;100459.85;103942;1309;61137;-82
2022/09/13 09:26:08;;;;;;;;;;;;;;;24.65;37.53;100454.95;103811;1310;61668;-83
2022/09/13 09:28:34;;;;;;;;;;;;;;;24.65;37.33;100455.52;103973;1311;61396;-82
2022/09/13 09:31:04;;;;;;;;;;;;;;;24.65;37.29;100451.36;104200;1311;61428;-84
2022/09/13 09:33:34;;;;;;;;;;;;;;;24.64;37.20;100451.98;103958;1309;61181;-84
2022/09/13 09:36:23;;;;;;;;;;;;;;;24.63;36.98;100450.34;103977;1309;61203;-84
2022/09/13 09:38:51;;;;;;;;;;;;;;;24.54;36.56;100451.29;103393;1317;72884;-84
2022/09/13 09:41:33;;;;;;;;;;;;;;;24.46;36.48;100447.29;103408;1316;76062;-85
2022/09/13 09:44:12;;;;;;;;;;;;;;;24.46;36.37;100447.29;103531;1317;61417;-85
2022/09/13 09:46:38;;;;;;;;;;;;;;;24.47;36.25;100451.77;103340;1317;61304;-84
2022/09/13 09:52:10;;;;;;;;;;;;;;;24.46;36.03;100447.52;103275;1317;74801;-83
2022/09/13 09:54:37;;;;;;;;;;;;;;;24.47;35.95;100441.69;103205;1316;61466;-83
2022/09/13 09:57:06;;;;;;;;;;;;;;;24.47;35.83;100442.52;103116;1316;60574;-84
2022/09/13 09:59:32;;;;;;;;;;;;;;;24.46;35.81;100438.51;104519;1317;73801;-83
2022/09/13 10:01:59;;;;;;;;;;;;;;;24.43;35.62;100436.95;102558;1316;2644344;-84
2022/09/13 10:04:24;;;;;;;;;;;;;;;24.43;35.56;100437.67;103611;1316;59614;-83
2022/09/13 10:06:50;;;;;;;;;;;;;;;24.44;35.56;100433.80;103004;1317;61408;-84
2022/09/13 10:09:17;;;;;;;;;;;;;;;24.44;35.39;100434.02;102933;1317;61620;-85
2022/09/13 10:11:45;;;;;;;;;;;;;;;24.44;35.39;100430.73;102827;1317;61445;-83
2022/09/13 10:14:29;;;;;;;;;;;;;;;24.47;35.21;100433.60;103161;1316;61191;-83
2022/09/13 10:17:14;;;;;;;;;;;;;;;24.45;35.23;100432.11;103669;1309;61285;-83
2022/09/13 10:19:40;;;;;;;;;;;;;;;24.43;35.04;100431.71;103845;1309;73091;-83
2022/09/13 10:22:10;;;;;;;;;;;;;;;24.41;34.89;100420.90;104078;1309;61318;-83
2022/09/13 10:24:36;;;;;;;;;;;;;;;24.42;34.72;100418.92;103804;1310;62229;-82
2022/09/13 10:27:03;;;;;;;;;;;;;;;24.39;34.68;100423.28;103960;1309;61328;-83
2022/09/13 10:29:28;;;;;;;;;;;;;;;24.40;34.65;100418.20;104118;1311;61415;-83
2022/09/13 10:31:57;;;;;;;;;;;;;;;24.42;34.63;100425.56;103992;1311;61345;-83
2022/09/13 10:34:23;;;;;;;;;;;;;;;24.43;34.57;100419.65;103934;1310;61405;-83
2022/09/13 10:36:51;;;;;;;;;;;;;;;24.41;34.62;100413.38;104081;1309;61457;-81
2022/09/13 10:39:18;;;;;;;;;;;;;;;24.41;34.50;100412.15;104109;1310;72775;-84
2022/09/13 10:42:07;;;;;;;;;;;;;;;24.42;34.47;100407.93;103972;1309;75945;-83
2022/09/13 10:44:37;;;;;;;;;;;;;;;24.47;34.71;100406.25;103441;1316;61335;-82
2022/09/13 10:47:04;;;;;;;;;;;;;;;24.51;34.76;100409.98;103229;1317;61132;-84
2022/09/13 10:49:36;;;;;;;;;;;;;;;24.54;34.77;100407.56;103140;1317;74458;-84
2022/09/13 10:52:21;;;;;;;;;;;;;;;24.52;34.70;100400.14;104359;1315;74783;-84
2022/09/13 10:54:46;;;;;;;;;;;;;;;24.55;34.76;100396.48;103328;1316;61215;-83
2022/09/13 10:57:30;;;;;;;;;;;;;;;24.56;34.78;100395.81;102972;1317;61321;-83
2022/09/13 10:59:56;;;;;;;;;;;;;;;24.56;34.61;100394.17;102808;1317;73999;-84
2022/09/13 11:02:40;;;;;;;;;;;;;;;24.57;34.68;100392.53;102788;1316;61469;-85
2022/09/13 11:05:08;;;;;;;;;;;;;;;24.59;34.54;100393.23;102687;1317;63633;-83
2022/09/13 11:07:46;;;;;;;;;;;;;;;24.60;34.60;100388.23;104291;1317;60799;-83
2022/09/13 11:10:17;;;;;;;;;;;;;;;24.62;34.66;100384.34;104450;1314;72843;-84
2022/09/13 11:13:01;;;;;;;;;;;;;;;24.65;34.72;100383.41;104952;1314;75556;-84
2022/09/13 11:15:27;;;;;;;;;;;;;;;24.67;34.65;100382.43;104977;1313;59524;-84
2022/09/13 11:17:58;;;;;;;;;;;;;;;24.68;34.51;100376.25;104872;1314;59457;-84
2022/09/13 11:20:28;;;;;;;;;;;;;;;24.71;34.49;100379.23;104976;1314;72536;-84
2022/09/13 11:23:16;;;;;;;;;;;;;;;24.72;34.41;100378.17;104504;1310;66095;-84
2022/09/13 11:26:01;;;;;;;;;;;;;;;24.70;34.19;100382.75;104026;1311;61279;-83
2022/09/13 11:28:30;;;;;;;;;;;;;;;24.63;33.96;100381.55;105308;1310;60816;-84
2022/09/13 11:30:58;;;;;;;;;;;;;;;24.58;33.83;100379.97;105224;1309;74056;-83
2022/09/13 11:33:27;;;;;;;;;;;;;;;24.58;33.74;100381.62;103815;1310;75382;-83
2022/09/13 11:36:11;;;;;;;;;;;;;;;24.60;33.73;100383.23;103897;1309;61305;-83
2022/09/13 11:38:50;;;;;;;;;;;;;;;24.61;33.70;100385.85;103728;1309;61252;-82
2022/09/13 11:41:22;;;;;;;;;;;;;;;24.64;33.80;100383.63;103737;1310;72777;-83
2022/09/13 11:43:54;;;;;;;;;;;;;;;24.66;33.68;100378.38;103912;1310;75981;-81
2022/09/13 11:46:23;;;;;;;;;;;;;;;24.68;33.65;100371.70;103839;1311;61601;-83
2022/09/13 11:48:58;;;;;;;;;;;;;;;24.66;33.55;100367.25;103974;1309;61258;-82
2022/09/13 11:51:32;;;;;;;;;;;;;;;24.67;33.63;100365.20;104137;1310;74129;-82
2022/09/13 11:54:17;;;;;;;;;;;;;;;24.69;33.54;100366.27;104068;1311;76157;-84
2022/09/13 11:56:47;;;;;;;;;;;;;;;24.70;33.53;100371.02;104125;1309;61126;-82
2022/09/13 11:59:15;;;;;;;;;;;;;;;24.69;33.36;100364.62;104157;1309;61395;-83
2022/09/13 12:01:44;;;;;;;;;;;;;;;24.70;33.36;100362.77;104042;1309;72901;-83
2022/09/13 12:04:12;;;;;;;;;;;;;;;24.71;33.43;100360.81;104061;1309;75122;-83
2022/09/13 12:06:46;;;;;;;;;;;;;;;24.73;33.44;100354.20;104225;1311;61358;-85
2022/09/13 12:09:14;;;;;;;;;;;;;;;24.75;33.35;100352.69;104271;1309;61428;-84
2022/09/13 12:11:42;;;;;;;;;;;;;;;24.75;33.24;100355.01;104294;1306;74184;-84
2022/09/13 12:14:12;;;;;;;;;;;;;;;24.69;33.08;100355.15;104127;1309;74938;-83
2022/09/13 12:16:58;;;;;;;;;;;;;;;24.67;33.06;100355.30;104106;1309;61347;-83
2022/09/13 12:19:28;;;;;;;;;;;;;;;24.68;33.22;100354.42;104251;1308;61366;-83
2022/09/13 12:22:21;;;;;;;;;;;;;;;24.71;33.22;100356.71;104220;1308;71634;-84
2022/09/13 12:24:54;;;;;;;;;;;;;;;24.73;33.09;100352.40;103972;1314;73688;-84
2022/09/13 12:27:22;;;;;;;;;;;;;;;24.74;33.28;100350.44;104093;1315;61928;-85
2022/09/13 12:29:52;;;;;;;;;;;;;;;24.76;33.20;100354.41;103929;1314;61686;-84
2022/09/13 12:32:18;;;;;;;;;;;;;;;24.75;33.02;100351.06;104024;1314;72993;-85
2022/09/13 12:35:04;;;;;;;;;;;;;;;24.75;32.95;100353.41;104072;1315;74676;-85
2022/09/13 12:37:41;;;;;;;;;;;;;;;24.74;33.04;100354.27;103013;1322;61312;-83